Time;durP1;ratioP1;P1;durP2;ratioP2;P2;SDS_P1;SDS_P2;PMS_P1;PMS_P2;Temp;Humidity;BMP_temperature;BMP_pressure;BME280_temperature;BME280_humidity;BME280_pressure;Samples;Min_cycle;Max_cycle;Signal;HPM_P1;HPM_P2
2022/04/01 00:00:55;;;;;;;10.53;6.30;;;;;;;-145.18;100.00;46658.44;4994338;28;20041;-67
2022/04/01 00:03:21;;;;;;;9.63;6.30;;;;;;;-145.18;100.00;46654.53;4993419;28;20502;-67
2022/04/01 00:05:46;;;;;;;10.67;6.10;;;;;;;-145.18;100.00;46656.50;4993981;28;20054;-67
2022/04/01 00:08:12;;;;;;;8.50;5.70;;;;;;;-145.18;100.00;46654.53;4993764;28;20114;-67
2022/04/01 00:10:37;;;;;;;8.80;5.90;;;;;;;-145.18;100.00;46656.50;4994304;28;20073;-67
2022/04/01 00:13:03;;;;;;;9.33;6.10;;;;;;;-145.18;100.00;46654.53;4993290;28;20447;-67
2022/04/01 00:15:29;;;;;;;9.37;6.37;;;;;;;-145.18;100.00;46656.50;4994016;28;20275;-67
2022/04/01 00:17:56;;;;;;;9.13;6.20;;;;;;;-145.18;100.00;46658.44;4994070;28;20173;-67
2022/04/01 00:20:21;;;;;;;9.27;6.80;;;;;;;-145.18;100.00;46656.50;4993849;28;20037;-67
2022/04/01 00:22:47;;;;;;;9.00;5.97;;;;;;;-145.18;100.00;46652.59;4993820;28;20026;-67
2022/04/01 00:25:14;;;;;;;9.87;6.17;;;;;;;-145.18;100.00;46652.59;4993554;28;20035;-67
2022/04/01 00:27:39;;;;;;;13.57;7.95;;;;;;;-145.18;100.00;46652.59;4975678;28;20417;-67
2022/04/01 00:30:05;;;;;;;10.50;7.57;;;;;;;-145.18;100.00;46658.44;4993717;28;20035;-67
2022/04/01 00:32:31;;;;;;;12.50;6.67;;;;;;;-145.18;100.00;46654.53;4993494;28;20117;-67
2022/04/01 00:34:56;;;;;;;11.27;6.83;;;;;;;-145.18;100.00;46656.50;4993497;28;20268;-67
2022/04/01 00:37:22;;;;;;;12.23;7.30;;;;;;;-145.18;100.00;46654.53;4993076;28;20479;-67
2022/04/01 00:39:47;;;;;;;8.33;6.30;;;;;;;-145.18;100.00;46654.53;4993787;28;20081;-67
2022/04/01 00:42:13;;;;;;;12.07;6.53;;;;;;;-145.18;100.00;46656.50;4993176;28;20082;-67
2022/04/01 00:44:40;;;;;;;13.17;8.30;;;;;;;-145.18;100.00;46652.59;4976449;28;20038;-67
2022/04/01 00:47:11;;;;;;;11.60;7.78;;;;;;;-145.18;100.00;46654.53;4993254;28;20029;-67
2022/04/01 00:49:37;;;;;;;13.55;8.75;;;;;;;-145.18;100.00;46650.63;4993607;28;20442;-65
2022/04/01 00:52:06;;;;;;;12.23;9.02;;;;;;;-145.18;100.00;46652.59;4993196;28;20118;-67
2022/04/01 00:54:32;;;;;;;11.85;8.98;;;;;;;-145.18;100.00;46654.53;4993723;28;20022;-67
2022/04/01 00:56:59;;;;;;;12.37;8.70;;;;;;;-145.18;100.00;46652.59;4993213;28;20034;-67
2022/04/01 00:59:25;;;;;;;11.95;9.15;;;;;;;-145.18;100.00;46650.63;4993416;28;20041;-66
2022/04/01 01:01:50;;;;;;;13.45;9.20;;;;;;;-145.18;100.00;46650.63;4992858;28;20491;-67
2022/04/01 01:04:18;;;;;;;11.97;8.23;;;;;;;-145.18;100.00;46656.50;4993312;28;20062;-66
2022/04/01 01:06:49;;;;;;;13.90;9.00;;;;;;;-145.18;100.00;46652.59;4993023;28;20073;-66
2022/04/01 01:09:14;;;;;;;15.10;9.35;;;;;;;-145.18;100.00;46650.63;4993451;28;20038;-66
2022/04/01 01:11:41;;;;;;;12.40;8.93;;;;;;;-145.18;100.00;46656.50;4993131;28;20048;-66
2022/04/01 01:14:08;;;;;;;11.35;8.18;;;;;;;-145.18;100.00;46648.69;4993036;28;20054;-66
2022/04/01 01:16:35;;;;;;;13.07;10.05;;;;;;;-145.18;100.00;46648.69;4992947;28;20470;-66
2022/04/01 01:19:20;;;;;;;12.50;9.50;;;;;;;-145.18;100.00;46652.59;4993380;28;20031;-66
2022/04/01 01:21:49;;;;;;;14.32;10.82;;;;;;;-145.18;100.00;46648.69;4992811;28;20030;-66
2022/04/01 01:24:15;;;;;;;14.10;10.20;;;;;;;-145.18;100.00;46654.53;4993521;28;20120;-64
2022/04/01 01:26:51;;;;;;;10.57;8.23;;;;;;;-145.18;100.00;46648.69;4992556;28;20046;-64
2022/04/01 01:29:25;;;;;;;;;;;;;;;-145.18;100.00;46654.53;4993419;28;20046;-65
2022/04/01 01:31:52;;;;;;;10.02;7.18;;;;;;;-145.18;100.00;46650.63;4992646;28;19924;-65
2022/04/01 01:34:18;;;;;;;9.95;7.22;;;;;;;-145.18;100.00;46658.44;4992903;28;20077;-65
2022/04/01 01:36:43;;;;;;;8.70;6.10;;;;;;;-145.18;100.00;46648.69;4992521;28;20089;-63
2022/04/01 01:39:09;;;;;;;12.90;8.60;;;;;;;-145.18;100.00;46652.59;4992868;28;20026;-66
2022/04/01 01:41:34;;;;;;;12.90;9.03;;;;;;;-145.18;100.00;46656.50;4993153;28;20031;-65
2022/04/01 01:43:59;;;;;;;11.77;9.10;;;;;;;-145.18;100.00;46654.53;4976131;28;20041;-65
2022/04/01 01:46:26;;;;;;;11.27;8.27;;;;;;;-145.18;100.00;46650.63;4975532;28;20030;-65
2022/04/01 01:48:51;;;;;;;13.23;8.73;;;;;;;-145.18;100.00;46650.63;4992565;28;20035;-64
2022/04/01 01:56:45;;;;;;;10.43;7.82;;;;;;;-145.18;100.00;46658.44;4978335;28;20458;-65
2022/04/01 01:59:11;;;;;;;11.43;8.30;;;;;;;-145.18;100.00;46656.50;4993057;28;20049;-65
2022/04/01 02:04:06;;;;;;;12.88;9.82;;;;;;;-145.18;100.00;46654.53;5012974;23;20046;-63
2022/04/01 02:06:32;;;;;;;12.60;8.13;;;;;;;-145.18;100.00;46650.63;5006853;28;20049;-66
2022/04/01 02:08:58;;;;;;;12.70;8.85;;;;;;;-145.18;100.00;46654.53;5010369;28;20398;-66
2022/04/01 02:11:24;;;;;;;12.37;8.27;;;;;;;-145.18;100.00;46650.63;4994177;28;20030;-66
2022/04/01 02:13:51;;;;;;;10.60;7.43;;;;;;;-145.18;100.00;46654.53;5010856;28;20030;-66
2022/04/01 02:16:17;;;;;;;9.93;7.35;;;;;;;-145.18;100.00;46652.59;5011588;28;20712;-66
2022/04/01 02:18:43;;;;;;;10.77;8.13;;;;;;;-145.18;100.00;46654.53;5011281;28;20044;-63
2022/04/01 02:21:11;;;;;;;12.80;9.00;;;;;;;-145.18;100.00;46652.59;5011323;28;20550;-65
2022/04/01 02:23:41;;;;;;;11.80;8.73;;;;;;;-145.18;100.00;46654.53;5010987;28;20398;-65
2022/04/01 02:26:07;;;;;;;12.77;8.93;;;;;;;-145.18;100.00;46656.50;5011340;28;20041;-63
2022/04/01 02:28:37;;;;;;;14.10;9.67;;;;;;;-145.18;100.00;46652.59;4993245;28;20022;-65
2022/04/01 02:31:04;;;;;;;12.27;8.45;;;;;;;-145.18;100.00;46652.59;5010983;28;20287;-65
2022/04/01 02:33:31;;;;;;;10.40;7.53;;;;;;;-145.18;100.00;46652.59;5010921;28;20085;-65
2022/04/01 02:35:57;;;;;;;11.50;8.45;;;;;;;-145.18;100.00;46650.63;4993618;28;20033;-65
2022/04/01 02:38:27;;;;;;;11.95;8.57;;;;;;;-145.18;100.00;46648.69;5010760;28;20714;-65
2022/04/01 02:40:54;;;;;;;14.40;9.15;;;;;;;-145.18;100.00;46648.69;5011091;28;20033;-65
2022/04/01 02:43:20;;;;;;;11.40;7.50;;;;;;;-145.18;100.00;46648.69;5010708;28;20506;-65
2022/04/01 02:45:48;;;;;;;13.75;9.25;;;;;;;-145.18;100.00;46650.63;5011331;28;20117;-65
2022/04/01 02:48:18;;;;;;;12.13;8.45;;;;;;;-145.18;100.00;46650.63;5010849;28;20107;-66
2022/04/01 02:50:45;;;;;;;14.95;9.85;;;;;;;-145.18;100.00;46646.72;5011117;28;20034;-66
2022/04/01 02:53:11;;;;;;;11.52;9.10;;;;;;;-145.18;100.00;46648.69;5010226;28;20494;-66
2022/04/01 02:55:38;;;;;;;18.80;9.93;;;;;;;-145.18;100.00;46650.63;5011108;28;20104;-64
2022/04/01 02:58:06;;;;;;;16.38;9.90;;;;;;;-145.18;100.00;46652.59;4992594;28;20513;-66
2022/04/01 03:00:33;;;;;;;13.43;9.85;;;;;;;-145.18;100.00;46656.50;5010933;28;20053;-65
2022/04/01 03:02:59;;;;;;;12.55;9.43;;;;;;;-145.18;100.00;46654.53;5010109;28;20046;-65
2022/04/01 03:05:24;;;;;;;14.30;10.47;;;;;;;-145.18;100.00;46648.69;5010716;28;20038;-65
2022/04/01 03:07:50;;;;;;;12.83;9.40;;;;;;;-145.18;100.00;46652.59;4992776;28;20036;-66
2022/04/01 03:10:17;;;;;;;10.20;7.00;;;;;;;-145.18;100.00;46652.59;5010992;28;20474;-66
2022/04/01 03:12:42;;;;;;;14.27;8.45;;;;;;;-145.18;100.00;46652.59;5010567;28;20044;-66
2022/04/01 03:15:08;;;;;;;10.40;7.57;;;;;;;-145.18;100.00;46650.63;5010429;28;20473;-66
2022/04/01 03:17:34;;;;;;;13.75;8.00;;;;;;;-145.18;100.00;46650.63;5010038;28;20045;-66
2022/04/01 03:20:01;;;;;;;12.87;7.43;;;;;;;-145.18;100.00;46648.69;5010847;28;20105;-66
2022/04/01 03:22:26;;;;;;;10.57;6.72;;;;;;;-145.18;100.00;46650.63;5014677;28;20034;-66
2022/04/01 03:24:52;;;;;;;11.40;7.50;;;;;;;-145.18;100.00;46650.63;5014688;28;20462;-64
2022/04/01 03:27:17;;;;;;;13.73;9.17;;;;;;;-145.18;100.00;46650.63;4996958;28;20088;-65
2022/04/01 03:29:43;;;;;;;14.37;8.83;;;;;;;-145.18;100.00;46648.69;5014768;28;20045;-66
2022/04/01 03:32:10;;;;;;;14.70;8.03;;;;;;;-145.18;100.00;46652.59;4980367;28;20038;-65
2022/04/01 03:34:36;;;;;;;12.57;8.40;;;;;;;-145.18;100.00;46652.59;5014633;28;20037;-66
2022/04/01 03:37:02;;;;;;;9.57;6.97;;;;;;;-145.18;100.00;46652.59;5013837;28;20034;-65
2022/04/01 03:39:28;;;;;;;11.95;7.55;;;;;;;-145.18;100.00;46650.63;5014600;28;20034;-65
2022/04/01 03:41:54;;;;;;;12.83;8.00;;;;;;;-145.18;100.00;46652.59;5014379;28;20053;-65
2022/04/01 03:44:21;;;;;;;11.17;7.60;;;;;;;-145.18;100.00;46648.69;5012922;28;20041;-65
2022/04/01 03:47:05;;;;;;;14.18;7.93;;;;;;;-145.18;100.00;46654.53;5014672;28;20047;-65
2022/04/01 03:49:33;;;;;;;11.45;7.25;;;;;;;-145.18;100.00;46652.59;5014467;28;20057;-65
2022/04/01 03:51:59;;;;;;;12.63;7.65;;;;;;;-145.18;100.00;46656.50;5014088;28;20038;-65
2022/04/01 03:54:25;;;;;;;10.17;6.67;;;;;;;-145.18;100.00;46648.69;5014200;28;20107;-65
2022/04/01 03:56:58;;;;;;;14.77;7.20;;;;;;;-145.18;100.00;46648.69;5014000;28;20030;-66
2022/04/01 03:59:26;;;;;;;13.45;7.00;;;;;;;-145.18;100.00;46658.44;5014240;28;20057;-65
2022/04/01 04:01:53;;;;;;;9.32;6.53;;;;;;;-145.18;100.00;46646.72;5014045;28;20026;-65
2022/04/01 04:04:20;;;;;;;10.00;7.20;;;;;;;-145.18;100.00;46648.69;5013767;28;20049;-65
2022/04/01 04:06:47;;;;;;;9.68;7.43;;;;;;;-145.18;100.00;46652.59;5014211;28;20034;-65
2022/04/01 04:09:14;;;;;;;12.13;6.68;;;;;;;-145.18;100.00;46652.59;5013366;28;20034;-65
2022/04/01 04:11:40;;;;;;;11.63;7.28;;;;;;;-145.18;100.00;46652.59;5013995;28;20034;-65
2022/04/01 04:14:06;;;;;;;9.87;7.40;;;;;;;-145.18;100.00;46648.69;4995884;28;20033;-65
2022/04/01 04:16:45;;;;;;;10.30;6.15;;;;;;;-145.18;100.00;46652.59;5013819;28;20025;-65
2022/04/01 04:19:22;;;;;;;10.93;6.00;;;;;;;-145.18;100.00;46658.44;5013374;28;20123;-65
2022/04/01 04:22:15;;;;;;;11.30;6.72;;;;;;;-145.18;100.00;46656.50;5013955;28;20034;-65
2022/04/01 04:25:10;;;;;;;11.43;6.78;;;;;;;-145.18;100.00;46652.59;5010239;28;20087;-65
2022/04/01 04:27:36;;;;;;;9.25;6.65;;;;;;;-145.18;100.00;46648.69;5006289;28;20033;-65
2022/04/01 04:30:08;;;;;;;12.43;7.97;;;;;;;-145.18;100.00;46648.69;4986447;28;20105;-65
2022/04/01 04:32:38;;;;;;;9.50;5.90;;;;;;;-145.18;100.00;46652.59;4982833;28;20511;-65
2022/04/01 04:35:06;;;;;;;12.48;6.85;;;;;;;-145.18;100.00;46654.53;4982950;28;20027;-65
2022/04/01 04:37:35;;;;;;;8.80;7.05;;;;;;;-145.18;100.00;46650.63;4984116;28;20026;-65
2022/04/01 04:40:01;;;;;;;10.18;6.45;;;;;;;-145.18;100.00;46654.53;4983373;28;20065;-65
2022/04/01 04:42:27;;;;;;;10.10;6.63;;;;;;;-145.18;100.00;46652.59;4983420;28;20323;-64
2022/04/01 04:44:53;;;;;;;13.57;7.47;;;;;;;-145.18;100.00;46652.59;4988135;28;20673;-65
2022/04/01 04:47:28;;;;;;;9.27;6.72;;;;;;;-145.18;100.00;46650.63;4984863;28;20042;-65
2022/04/01 04:49:56;;;;;;;10.90;6.05;;;;;;;-145.18;100.00;46648.69;4961576;28;20395;-65
2022/04/01 04:52:25;;;;;;;8.52;6.20;;;;;;;-145.18;100.00;46650.63;4992183;28;20029;-64
2022/04/01 04:54:52;;;;;;;8.30;5.35;;;;;;;-145.18;100.00;46648.69;4992391;28;20045;-65
2022/04/01 04:57:20;;;;;;;9.73;5.75;;;;;;;-145.18;100.00;46654.53;4992538;28;20117;-63
2022/04/01 04:59:48;;;;;;;10.35;5.50;;;;;;;-145.18;100.00;46652.59;4992676;28;20033;-65
2022/04/01 05:02:26;;;;;;;7.20;5.35;;;;;;;-145.18;100.00;46654.53;4984414;28;20495;-65
2022/04/01 05:05:01;;;;;;;9.50;5.47;;;;;;;-145.18;100.00;46652.59;4977627;28;20022;-65
2022/04/01 05:07:35;;;;;;;8.10;5.40;;;;;;;-145.18;100.00;46650.63;4991878;28;20041;-65
2022/04/01 05:10:16;;;;;;;9.25;5.50;;;;;;;-145.18;100.00;46650.63;4992591;28;20109;-65
2022/04/01 05:13:00;;;;;;;10.07;5.43;;;;;;;-145.18;100.00;46652.59;4990287;28;20030;-65
2022/04/01 05:15:37;;;;;;;10.13;5.68;;;;;;;-145.18;100.00;46648.69;4991838;28;20030;-65
2022/04/01 05:18:09;;;;;;;11.10;5.10;;;;;;;-145.18;100.00;46648.69;4992642;28;20096;-65
2022/04/01 05:20:38;;;;;;;6.78;4.85;;;;;;;-145.18;100.00;46654.53;4991189;28;20031;-65
2022/04/01 05:23:24;;;;;;;8.63;4.75;;;;;;;-145.18;100.00;46652.59;4991801;28;20157;-64
2022/04/01 05:25:55;;;;;;;8.98;4.88;;;;;;;-145.18;100.00;46650.63;4992988;28;20065;-63
2022/04/01 05:28:25;;;;;;;7.30;4.15;;;;;;;-145.18;100.00;46650.63;4992712;28;20029;-63
2022/04/01 05:31:23;;;;;;;9.25;4.88;;;;;;;-145.18;100.00;46656.50;4992731;28;20458;-63
2022/04/01 05:34:04;;;;;;;8.52;5.25;;;;;;;-145.18;100.00;46650.63;4992313;28;20165;-63
2022/04/01 05:36:31;;;;;;;7.55;4.57;;;;;;;-145.18;100.00;46650.63;4993411;28;20051;-63
2022/04/01 05:38:57;;;;;;;8.93;5.07;;;;;;;-145.18;100.00;46656.50;4992153;28;20403;-63
2022/04/01 05:41:23;;;;;;;10.68;4.70;;;;;;;-145.18;100.00;46654.53;4992946;28;20035;-63
2022/04/01 05:43:50;;;;;;;6.50;4.57;;;;;;;-145.18;100.00;46652.59;4991700;28;20030;-63
2022/04/01 05:46:16;;;;;;;5.90;4.60;;;;;;;-145.18;100.00;46650.63;4991876;28;20228;-63
2022/04/01 05:48:43;;;;;;;10.23;5.15;;;;;;;-145.18;100.00;46658.44;4985820;28;20479;-63
2022/04/01 05:51:15;;;;;;;7.43;4.30;;;;;;;-145.18;100.00;46662.34;4990230;28;20373;-63
2022/04/01 05:53:45;;;;;;;10.25;4.82;;;;;;;-145.18;100.00;46654.53;4987528;28;20027;-63
2022/04/01 05:56:12;;;;;;;6.85;4.70;;;;;;;-145.18;100.00;46656.50;4973711;28;20064;-63
2022/04/01 05:58:39;;;;;;;9.35;5.03;;;;;;;-145.18;100.00;46654.53;4971183;28;20034;-63
2022/04/01 06:01:25;;;;;;;6.97;4.53;;;;;;;-145.18;100.00;46660.41;4976307;28;20033;-63
2022/04/01 06:04:16;;;;;;;7.93;5.05;;;;;;;-145.18;100.00;46656.50;4968749;28;20038;-63
2022/04/01 06:06:43;;;;;;;9.00;4.93;;;;;;;-145.18;100.00;46654.53;4972843;28;20045;-63
2022/04/01 06:09:48;;;;;;;7.43;5.28;;;;;;;-145.18;100.00;46662.34;4971141;28;20077;-63
2022/04/01 06:12:32;;;;;;;7.72;5.10;;;;;;;-145.18;100.00;46662.34;4986087;28;20507;-63
2022/04/01 06:15:15;;;;;;;7.93;5.05;;;;;;;-145.18;100.00;46656.50;4976046;28;20534;-63
2022/04/01 06:18:32;;;;;;;9.88;5.03;;;;;;;-145.18;100.00;46656.50;4990049;28;20101;-63
2022/04/01 06:21:03;;;;;;;6.95;4.88;;;;;;;-145.18;100.00;46658.44;4987620;28;20036;-63
2022/04/01 06:23:50;;;;;;;10.48;4.88;;;;;;;-145.18;100.00;46658.44;4991998;28;20022;-63
2022/04/01 06:26:16;;;;;;;8.63;4.65;;;;;;;-145.18;100.00;46658.44;4991524;28;20039;-63
2022/04/01 06:29:20;;;;;;;8.37;4.97;;;;;;;-145.18;100.00;46656.50;4990649;28;20042;-63
2022/04/01 06:32:02;;;;;;;6.43;4.10;;;;;;;-145.18;100.00;46658.44;4960719;28;20086;-63
2022/04/01 06:34:49;;;;;;;7.55;4.60;;;;;;;-145.18;100.00;46660.41;4990738;28;20085;-63
2022/04/01 06:37:22;;;;;;;9.43;4.85;;;;;;;-145.18;100.00;46658.44;4991237;28;20538;-63
2022/04/01 06:40:03;;;;;;;7.68;4.43;;;;;;;-145.18;100.00;46656.50;4990754;28;20030;-63
2022/04/01 06:42:32;;;;;;;6.88;4.50;;;;;;;-145.18;100.00;46656.50;4990971;28;20030;-63
2022/04/01 06:44:58;;;;;;;14.05;5.05;;;;;;;-145.18;100.00;46658.44;4990440;28;20133;-63
2022/04/01 06:47:23;;;;;;;6.93;4.45;;;;;;;-145.18;100.00;46658.44;4973610;28;20109;-63
2022/04/01 06:49:48;;;;;;;10.27;4.57;;;;;;;-145.18;100.00;46656.50;4990434;28;20045;-63
2022/04/01 06:52:14;;;;;;;7.73;4.17;;;;;;;-145.18;100.00;46662.34;4990015;28;20035;-63
2022/04/01 06:54:40;;;;;;;6.70;4.60;;;;;;;-145.18;100.00;46660.41;4977106;28;20475;-63
2022/04/01 06:57:06;;;;;;;7.03;4.10;;;;;;;-145.18;100.00;46656.50;4990425;28;20046;-63
2022/04/01 06:59:31;;;;;;;9.50;4.45;;;;;;;-145.18;100.00;46660.41;4990757;28;20042;-63
2022/04/01 07:01:57;;;;;;;7.53;4.17;;;;;;;-145.18;100.00;46658.44;4990411;28;20042;-64
2022/04/01 07:04:22;;;;;;;9.97;4.77;;;;;;;-145.18;100.00;46660.41;4988973;28;20054;-63
2022/04/01 07:06:47;;;;;;;7.73;4.23;;;;;;;-145.18;100.00;46656.50;4988181;28;20121;-63
2022/04/01 07:09:13;;;;;;;6.87;4.40;;;;;;;-145.18;100.00;46656.50;4989656;28;20512;-63
2022/04/01 07:11:38;;;;;;;7.77;4.67;;;;;;;-145.18;100.00;46656.50;4991241;28;20070;-63
2022/04/01 07:14:04;;;;;;;8.63;4.93;;;;;;;-145.18;100.00;46658.44;4974374;28;20419;-63
2022/04/01 07:16:29;;;;;;;7.77;4.53;;;;;;;-145.18;100.00;46664.31;4987341;28;20042;-63
2022/04/01 07:18:54;;;;;;;14.50;4.80;;;;;;;-145.18;100.00;46664.31;4946487;28;20480;-63
2022/04/01 07:21:20;;;;;;;5.70;4.60;;;;;;;-145.18;100.00;46664.31;4991027;28;20039;-63
2022/04/01 07:23:45;;;;;;;9.17;4.40;;;;;;;-145.18;100.00;46666.25;4989517;28;20052;-63
2022/04/01 07:26:11;;;;;;;8.33;4.40;;;;;;;-145.18;100.00;46660.41;4973407;28;20554;-63
2022/04/01 07:28:36;;;;;;;11.67;4.10;;;;;;;-145.18;100.00;46664.31;4986933;28;20030;-63
2022/04/01 07:32:29;;;;;;;7.40;3.63;;;;;;;-145.18;100.00;46662.34;4990054;28;20553;-63
2022/04/01 07:33:47;;;;;;;5.05;3.30;;;;;;;-145.18;100.00;46656.50;4990327;28;20035;-63
2022/04/01 07:36:13;;;;;;;6.13;3.50;;;;;;;-145.18;100.00;46650.63;4991205;28;20046;-63
2022/04/01 07:38:39;;;;;;;4.40;2.93;;;;;;;-145.18;100.00;46654.53;4990942;28;20037;-63
2022/04/01 07:41:05;;;;;;;4.90;2.90;;;;;;;-145.18;100.00;46648.69;4990775;28;20030;-63
2022/04/01 07:43:30;;;;;;;6.33;3.00;;;;;;;-145.18;100.00;46640.88;4990547;28;20125;-63
2022/04/01 07:45:57;;;;;;;4.87;2.60;;;;;;;-145.18;100.00;46633.06;4990478;28;20505;-63
2022/04/01 07:48:23;;;;;;;5.40;2.30;;;;;;;-145.18;100.00;46621.31;4991302;28;20117;-63
2022/04/01 07:50:48;;;;;;;6.63;2.53;;;;;;;-145.18;100.00;46611.56;4991777;28;20121;-63
2022/04/01 07:53:13;;;;;;;5.43;2.87;;;;;;;-145.18;100.00;46592.03;4990389;28;20703;-63
2022/04/01 07:55:39;;;;;;;9.97;3.43;;;;;;;-145.18;100.00;46578.34;4985188;28;20035;-63
2022/04/01 07:58:04;;;;;;;5.80;2.90;;;;;;;-145.18;100.00;46576.41;4986231;28;20026;-63
2022/04/01 08:00:30;;;;;;;6.43;3.23;;;;;;;-145.18;100.00;46572.50;4988939;28;20032;-63
2022/04/01 08:02:57;;;;;;;5.43;3.57;;;;;;;-145.18;100.00;46558.81;4989971;28;20125;-63
2022/04/01 08:05:22;;;;;;;7.38;2.85;;;;;;;-145.18;100.00;46552.97;4991364;28;20077;-63
2022/04/01 08:07:48;;;;;;;7.97;3.10;;;;;;;-145.18;100.00;46547.09;4993422;28;20057;-63
2022/04/01 08:10:13;;;;;;;6.20;3.23;;;;;;;-145.18;100.00;46543.19;4994341;28;20035;-63
2022/04/01 08:12:39;;;;;;;9.17;3.03;;;;;;;-145.18;100.00;46539.28;4994983;28;20034;-63
2022/04/01 08:15:05;;;;;;;5.13;3.10;;;;;;;-145.18;100.00;46535.38;4993551;28;20092;-63
2022/04/01 08:17:30;;;;;;;7.28;3.22;;;;;;;-145.18;100.00;46539.28;4994570;28;20097;-63
2022/04/01 08:19:56;;;;;;;7.13;3.60;;;;;;;-145.18;100.00;46533.44;4993329;28;20487;-63
2022/04/01 08:22:21;;;;;;;8.87;3.10;;;;;;;-145.18;100.00;46537.34;4994033;28;20034;-63
2022/04/01 08:24:47;;;;;;;8.03;3.33;;;;;;;-145.18;100.00;46539.28;4993127;28;20105;-63
2022/04/01 08:27:14;;;;;;;11.27;3.40;;;;;;;-145.18;100.00;46537.34;4993175;28;20035;-63
2022/04/01 08:29:40;;;;;;;7.43;3.28;;;;;;;-145.18;100.00;46529.53;4993520;28;20034;-63
2022/04/01 08:32:07;;;;;;;5.43;2.87;;;;;;;-145.18;100.00;46539.28;4976701;28;20049;-63
2022/04/01 08:34:32;;;;;;;7.07;2.80;;;;;;;-145.18;100.00;46541.25;4992953;28;20030;-63
2022/04/01 08:36:58;;;;;;;11.33;3.23;;;;;;;-145.18;100.00;46541.25;4993188;28;20029;-63
2022/04/01 08:39:24;;;;;;;4.65;2.70;;;;;;;-145.18;100.00;46547.09;4992442;28;20038;-63
2022/04/01 08:41:50;;;;;;;5.57;2.33;;;;;;;-145.18;100.00;46543.19;4993093;28;20450;-63
2022/04/01 08:44:15;;;;;;;8.93;2.60;;;;;;;-145.18;100.00;46551.00;4993042;28;20450;-64
2022/04/01 08:46:41;;;;;;;6.00;2.47;;;;;;;-145.18;100.00;46547.09;4989935;28;20030;-64
2022/04/01 08:49:07;;;;;;;7.27;2.53;;;;;;;-145.18;100.00;46552.97;4986783;28;20494;-64
2022/04/01 08:51:33;;;;;;;9.63;2.67;;;;;;;-145.18;100.00;46566.63;4991890;28;20034;-64
2022/04/01 08:53:58;;;;;;;6.80;2.80;;;;;;;-145.18;100.00;46564.69;4991303;28;20446;-65
2022/04/01 08:56:24;;;;;;;6.87;3.63;;;;;;;-145.18;100.00;46570.53;4989962;28;20315;-65
2022/04/01 08:58:49;;;;;;;5.87;2.37;;;;;;;-145.18;100.00;46574.44;4990428;28;20026;-66
2022/04/01 09:01:16;;;;;;;7.70;2.37;;;;;;;-145.18;100.00;46588.13;4991862;28;20026;-65
2022/04/01 09:03:42;;;;;;;7.93;2.47;;;;;;;-145.18;100.00;46599.84;4986318;28;20487;-65
2022/04/01 09:06:08;;;;;;;4.18;2.17;;;;;;;-145.18;100.00;46592.03;4992866;28;20045;-65
2022/04/01 09:08:37;;;;;;;4.43;2.10;;;;;;;-145.18;100.00;46609.59;4991807;28;20105;-65
2022/04/01 09:11:07;;;;;;;4.05;1.80;;;;;;;-145.18;100.00;46619.38;4992454;28;20137;-64
2022/04/01 09:13:42;;;;;;;4.70;1.80;;;;;;;-145.18;100.00;46623.28;4992294;28;20034;-64
2022/04/01 09:16:08;;;;;;;3.42;1.50;;;;;;;-145.18;100.00;46633.06;4991373;28;20031;-64
2022/04/01 09:18:42;;;;;;;2.03;1.33;;;;;;;-145.18;100.00;46636.94;4990863;28;20406;-64
2022/04/01 09:21:13;;;;;;;2.15;1.48;;;;;;;-145.18;100.00;46668.22;4992081;28;20804;-64
2022/04/01 09:23:44;;;;;;;2.60;1.10;;;;;;;-145.18;100.00;46668.22;4992257;28;20089;-64
2022/04/01 09:26:10;;;;;;;5.18;1.40;;;;;;;-145.18;100.00;46715.09;4992183;28;20113;-63
2022/04/01 09:28:41;;;;;;;2.83;1.20;;;;;;;-145.18;100.00;46715.09;4990720;28;20583;-63
2022/04/01 09:31:12;;;;;;;3.67;1.50;;;;;;;-145.18;100.00;46758.06;4987813;28;20383;-63
2022/04/01 09:33:43;;;;;;;2.95;1.45;;;;;;;-145.18;100.00;46748.28;4991676;28;20114;-63
2022/04/01 09:36:12;;;;;;;10.02;2.10;;;;;;;-145.18;100.00;46761.97;4990348;28;20045;-63
2022/04/01 09:38:38;;;;;;;2.22;1.25;;;;;;;-145.18;100.00;46769.78;4991424;28;20029;-63
2022/04/01 09:41:07;;;;;;;3.50;1.60;;;;;;;-145.18;100.00;46779.56;4991021;28;20465;-63
2022/04/01 09:43:38;;;;;;;2.53;1.40;;;;;;;-145.18;100.00;46781.50;4989093;28;20462;-63
2022/04/01 09:46:24;;;;;;;5.18;1.60;;;;;;;-145.18;100.00;46789.31;4974336;28;20390;-63
2022/04/01 09:48:54;;;;;;;2.63;1.25;;;;;;;-145.18;100.00;46779.56;4975683;28;20101;-62
2022/04/01 09:51:21;;;;;;;2.35;1.20;;;;;;;-145.18;100.00;46789.31;4991985;28;20096;-62
2022/04/01 09:53:52;;;;;;;7.63;1.70;;;;;;;-145.18;100.00;46824.47;4990753;28;20027;-62
2022/04/01 09:56:18;;;;;;;2.55;1.58;;;;;;;-145.18;100.00;46793.22;4990610;28;20046;-62
2022/04/01 09:58:43;;;;;;;4.90;2.00;;;;;;;-145.18;100.00;46828.38;4991337;28;20796;-62
2022/04/01 10:01:10;;;;;;;2.57;1.67;;;;;;;-145.18;100.00;46820.56;4991257;28;20045;-62
2022/04/01 10:03:35;;;;;;;2.25;1.45;;;;;;;-145.18;100.00;46814.72;4991163;28;20414;-62
2022/04/01 10:06:01;;;;;;;4.23;1.80;;;;;;;-145.18;100.00;46816.66;4991289;28;20038;-63
2022/04/01 10:08:29;;;;;;;3.55;1.50;;;;;;;-145.18;100.00;46844.00;4991206;28;20085;-64
2022/04/01 10:10:56;;;;;;;2.53;1.80;;;;;;;-145.18;100.00;46845.97;4973712;28;20426;-64
2022/04/01 10:13:29;;;;;;;4.30;1.63;;;;;;;-145.18;100.00;46842.06;4991153;28;20260;-65
2022/04/01 10:15:57;;;;;;;3.22;1.83;;;;;;;-145.18;100.00;46810.81;4991080;28;20771;-65
2022/04/01 10:18:23;;;;;;;5.00;1.90;;;;;;;-145.18;100.00;46844.00;4991060;28;20046;-66
2022/04/01 10:20:53;;;;;;;3.00;1.80;;;;;;;-145.18;100.00;46888.94;4991221;28;20263;-66
2022/04/01 10:23:21;;;;;;;4.28;2.13;;;;;;;-145.18;100.00;46931.91;4991239;28;20026;-67
2022/04/01 10:26:05;;;;;;;4.67;1.77;;;;;;;-145.18;100.00;46949.50;4990992;28;20113;-66
2022/04/01 10:28:31;;;;;;;3.30;1.60;;;;;;;-145.18;100.00;46929.97;4980400;28;20281;-67
2022/04/01 10:30:58;;;;;;;4.93;1.67;;;;;;;-145.18;100.00;46892.84;4990737;28;20362;-67
2022/04/01 10:33:26;;;;;;;3.83;1.93;;;;;;;-145.18;100.00;46863.53;4983163;28;20415;-67
2022/04/01 10:35:54;;;;;;;4.70;2.00;;;;;;;-145.18;100.00;46844.00;4990758;28;20263;-67
2022/04/01 10:38:24;;;;;;;4.40;1.90;;;;;;;-145.18;100.00;46871.38;4980358;28;20304;-67
2022/04/01 10:40:50;;;;;;;4.73;1.80;;;;;;;-145.18;100.00;47000.28;4983814;28;20684;-67
2022/04/01 10:43:21;;;;;;;9.50;2.20;;;;;;;-145.18;100.00;46902.63;4965865;28;20276;-67
2022/04/01 10:46:10;;;;;;;4.45;1.98;;;;;;;-145.18;100.00;46822.53;4985485;28;20039;-67
2022/04/01 10:51:37;;;;;;;5.60;2.43;;;;;;;-145.18;100.00;46863.53;4989888;28;20302;-66
2022/04/01 10:54:22;;;;;;;6.53;2.20;;;;;;;-145.18;100.00;46888.94;4990061;28;20675;-66
2022/04/01 10:57:08;;;;;;;4.90;2.10;;;;;;;-145.18;100.00;46847.91;4980780;28;20427;-66
2022/04/01 10:59:45;;;;;;;4.05;2.22;;;;;;;-145.18;100.00;46844.00;4989755;28;20367;-66
2022/04/01 11:02:19;;;;;;;4.97;1.90;;;;;;;-145.18;100.00;46881.13;4990578;28;20042;-67
2022/04/01 11:04:48;;;;;;;5.07;2.03;;;;;;;-145.18;100.00;46885.03;4972210;28;20284;-67
2022/04/01 11:07:22;;;;;;;5.37;2.40;;;;;;;-145.18;100.00;46875.28;4990332;28;20264;-67
2022/04/01 11:10:05;;;;;;;5.33;2.40;;;;;;;-145.18;100.00;46842.06;4990124;28;20280;-67
2022/04/01 11:12:38;;;;;;;4.60;2.33;;;;;;;-145.18;100.00;46844.00;4990338;28;20252;-67
2022/04/01 11:15:09;;;;;;;4.47;2.60;;;;;;;-145.18;100.00;46838.16;4989072;28;20034;-66
2022/04/01 11:17:35;;;;;;;4.60;2.50;;;;;;;-145.18;100.00;46861.59;4986286;28;20031;-66
2022/04/01 11:20:07;;;;;;;4.43;2.40;;;;;;;-145.18;100.00;46844.00;4982668;28;20497;-66
2022/04/01 11:22:34;;;;;;;3.67;2.30;;;;;;;-145.18;100.00;46855.72;4990689;28;20454;-66
2022/04/01 11:24:59;;;;;;;3.85;2.40;;;;;;;-145.18;100.00;46836.19;4989858;28;20272;-66
2022/04/01 11:27:25;;;;;;;5.37;2.80;;;;;;;-145.18;100.00;46855.72;4975342;28;20053;-66